Central Sierra Snow Lab Weather observations

Data are for 10 minute period ending at time listed.
 Day   Time    Incoming  Reflected   Ave.   Ave.    Ave.    Vector  Max.    Ave.    Total    Snow   
  of    of      Solar     Solar      Air    Rel.    Wind    Wind    Wind   Baro.   Precip.   Depth  
Year   Day     Radiation Radiation   Temp.  Humid.  Speed   Dir.    Gust   Press.                   
2017   (PST)    Kw/m2     Kw/m2       F       %      mph     deg.    mph     mb.     in.      in.   
----------------------------------------------------------------------------------------------------
  19   23:00    0.000     999.000     24.4    100     2.5     211     7.8   776.90    9.77   110.10  
  19   23:10    0.000     999.000     24.3    100     3.3     216     8.1   776.70    9.76   122.40  
  19   23:20    0.000     999.000     24.3    100     2.9     214     5.7   776.60    9.80   113.70  
  19   23:30    0.000     999.000     24.3    100     3.2     206     6.3   776.50    9.81   107.00  
  19   23:40    0.000     999.000     24.3    100     3.9     212    12.5   776.30    9.83   106.90  
  19   23:50    0.000     999.000     24.1    100     3.7     216    11.8   776.20    9.83   112.40  
  20    0:00    0.000     999.000     24.0    100     4.5     220    11.8   776.00    9.84   107.60  
  20    0:10    0.000     999.000     23.8    100     4.2     208    13.0   775.90    9.84   107.40  
  20    0:20    0.000     999.000     23.5     98     4.1     216    10.5   775.80    9.85   108.60  
  20    0:30    0.000     999.000     23.0     99     3.7     208    13.5   775.50    9.84   154.60  
  20    0:40    0.000     999.000     22.8    100     3.3     210     8.6   775.30    9.87   115.90  
  20    0:50    0.000     999.000     22.8    100     2.8     214     7.9   774.90    9.89   139.20  
  20    1:00    0.000     999.000     22.8    100     2.9     220     8.0   774.70    9.90   157.60  
  20    1:10    0.000     999.000     22.9    100     2.7     209     7.5   774.50    9.89   144.00  
  20    1:20    0.000     999.000     22.9    100     3.6     215    11.2   774.20    9.93   143.70  
  20    1:30    0.000     999.000     23.0    100     3.3     216     8.1   774.00    9.94   119.10  
  20    1:40    0.000     999.000     23.1    100     2.9     217     7.3   773.60    9.94   142.60  
  20    1:50    0.000     999.000     23.2    100     3.3     220     9.3   773.70    9.92   151.70  
  20    2:00    0.000     999.000     23.3    100     4.0     226    12.7   773.80    9.93   129.00  
  20    2:10    0.000     999.000     23.4    100     2.8     213     9.3   773.70    9.95   163.90  
  20    2:20    0.000     999.000     23.5    100     2.8     230     8.7   773.50    9.95   164.70  
  20    2:30    0.000     999.000     23.6    100     3.9     210    13.7   773.00    9.96   167.50  
  20    2:40    0.000     999.000     23.6    100     3.0     225     7.3   772.80    9.95   137.00  
  20    2:50    0.000     999.000     23.6    100     2.9     209    10.0   772.70    9.96   143.10  
  20    3:00    0.000     999.000     23.6    100     4.3     204    17.9   772.60    9.98   158.10  
  20    3:10    0.000     999.000     23.6    100     3.9     226    10.8   772.50    9.99   110.00  
  20    3:20    0.000     999.000     23.6    100     3.6     216    10.0   772.30    9.98   122.10  
  20    3:30    0.000     999.000     23.5    100     4.1     221    11.1   772.00   10.01   142.00  
  20    3:40    0.000     999.000     23.6    100     3.1     227     7.5   771.70   10.01   113.10  
  20    3:50    0.000     999.000     23.5    100     2.2     217     7.3   771.50   10.01   149.50  
  20    4:00    0.000     999.000     23.5    100     1.8     230     4.6   771.20   10.02   158.90  
  20    4:10    0.000     999.000     23.6    100     3.2     223    11.0   771.00   10.03   161.20  
  20    4:20    0.000     999.000     23.6    100     3.5     220    10.7   770.80   10.05   131.40  
  20    4:30    0.000     999.000     23.6    100     2.5     217     7.7   770.60   10.06   118.50  
  20    4:40    0.000     999.000     23.7    100     2.7     217     8.6   770.10   10.07   111.30  
  20    4:50    0.000     999.000     23.7    100     3.6     218     8.8   769.70   10.08   111.60  
  20    5:00    0.000     999.000     23.8    100     3.6     208    12.1   769.50   10.09   112.00  
  20    5:10    0.000     999.000     23.9    100     3.0     232     8.0   769.30   10.11   143.20  
  20    5:20    0.000     999.000     24.0    100     2.8     236     9.5   769.00   10.11   130.80  
  20    5:30    0.000     999.000     24.2    100     3.4     230     8.5   768.80   10.12   130.20  
  20    5:40    0.000     999.000     24.3    100     3.2     238     7.7   768.70   10.13   111.60  
  20    5:50    0.000     999.000     24.4    100     3.9     231    12.0   768.50   10.15   120.70  
  20    6:00    0.000     999.000     24.5    100     2.6     229    13.6   768.40   10.16   121.20  
  20    6:10    0.000     999.000     24.6    100     2.4     212    11.0   768.40   10.19   112.50  
  20    6:20    0.000     999.000     24.6    100     2.3     216     7.9   768.10   10.26   112.90  
  20    6:30    0.000     999.000     24.7    100     2.7     203    10.4   768.00   10.31   113.20  
  20    6:40    0.000     999.000     24.8    100     1.9     233     5.0   768.10   10.33   115.60  
  20    6:50    0.000     999.000     24.8    100     3.8     199    25.3   768.10   10.52   113.70  
  20    7:00    0.000     999.000     25.0    102     3.4     215    10.3   768.10   10.53   114.00  
  20    7:10    0.000     999.000     25.1    100     4.1     208    11.8   767.90   10.55   114.00  
  20    7:20    0.000     999.000     25.2    101     3.7     212    10.9   767.70   10.55   113.90  
  20    7:30    0.000     999.000     25.3    105     4.4     209    15.2   767.60   10.55   113.50  
  20    7:40    0.001     999.000     25.5    108     4.3     214    16.3   767.40   10.56   113.80  
  20    7:50    0.001     999.000     25.6    108     4.7     207    15.3   767.20   10.57   113.90  
  20    8:00    0.002     999.000     25.7    107     4.9     208    12.8   767.10   10.57   113.90  
  20    8:10    0.002     999.000     25.7    106     2.8     220     6.5   767.00   10.64   113.40  
  20    8:20    0.002     999.000     25.8    104     3.0     218     8.5   766.90   10.65   120.60  
  20    8:30    0.003     999.000     25.8    100     4.7     231    13.2   767.10   10.64   113.70  
  20    8:40    0.003     999.000     25.8    100     4.1     210    13.2   767.10   10.66   121.80  
  20    8:50    0.003     999.000     25.8    100     3.1     224    10.4   767.10   10.67   113.50  
  20    9:00    0.005     999.000     25.8    100     3.9     212    10.8   767.10   10.67   118.60  
  20    9:10    0.006     999.000     25.9    100     3.4     211     9.7   767.20   10.68   113.70  
  20    9:20    0.009     999.000     26.0    100     4.1     211    10.4   767.20   10.68   113.50  
  20    9:30    0.007     999.000     25.9    100     3.2     223    10.5   767.20   10.69   113.50  
  20    9:40    0.007     999.000     26.0    100     2.5     215     7.6   767.20   10.71   113.50  
  20    9:50    0.010     999.000     26.0    100     3.4     215    10.5   767.30   10.70   117.30  
  20   10:00    0.012     999.000     26.1    100     3.7     213    13.0   767.40   10.72   123.70  
  20   10:10    0.010     999.000     26.0    100     3.0     208     8.5   767.40   10.74   113.10  
  20   10:20    0.011     999.000     26.0    100     2.7     210    11.0   767.40   10.74   115.50  
  20   10:30    0.012     999.000     26.1    100     2.2     215     6.5   767.40   10.76   113.60  
  20   10:40    0.014     999.000     26.3    100     2.7     212    10.0   767.30   10.76   133.50  
  20   10:50    0.013     999.000     26.4    100     2.5     216     7.6   767.30   10.76   122.40  
  20   11:00    0.015     999.000     26.7    100     1.8     210     7.5   767.10   10.76   165.70  
  20   11:10    0.017     999.000     26.8    100     2.5     204     7.1   767.00   10.78   153.90  
  20   11:20    0.018     999.000     27.0    100     2.2     213     6.7   766.90   10.78   112.70  
  20   11:30    0.019     999.000     27.1    100     1.8     211     4.3   766.80   10.79   113.50  
  20   11:40    0.015     999.000     27.3    102     2.5     218     8.0   766.70   10.79   113.60  
  20   11:50    0.010     999.000     26.5     99     2.4     212     5.7   766.60   10.81   122.10  
  20   12:00    0.015     999.000     26.5    100     2.8     217    11.1   766.50   10.82   113.60  
  20   12:10    0.019     999.000     26.6    100     2.7     218     7.1   766.40   10.84   113.60  
  20   12:20    0.021     999.000     27.1    102     2.4     209     5.4   766.30   10.84   114.00  
  20   12:30    0.012     999.000     27.1    101     2.8     213     7.3   766.10   10.84   114.00  
  20   12:40    0.013     999.000     26.6    100     2.5     212     7.0   765.90   10.85   118.90  
  20   12:50    0.022     999.000     26.7    100     3.1     226     9.8   765.80   10.86   113.90  
  20   13:00    0.027     999.000     27.2    100     3.3     214    11.7   765.70   10.87   113.90  
  20   13:10    0.020     999.000     27.1    100     3.9     208    12.3   765.50   10.87   113.80  
  20   13:20    0.031     999.000     27.2    100     4.6     209    12.0   765.40   10.88   113.70  
  20   13:30    0.026     999.000     27.5    100     3.9     207    10.3   765.40   10.88   113.70  
  20   13:40    0.025     999.000     27.3    100     3.6     207     9.7   765.40   10.88   113.80  
  20   13:50    0.015     999.000     27.1    100     2.8     211     8.5   765.40   10.88   114.70  
  20   14:00    0.016     999.000     26.8    100     2.5     204     7.9   765.30   10.90   113.50  
  20   14:10    0.021     999.000     26.8    100     3.0     214     9.5   765.40   10.91   113.80  
  20   14:20    0.011     999.000     26.6     99     2.6     218     7.6   765.30   10.91   113.80  
  20   14:30    0.009     999.000     25.8     99     2.8     210     7.1   765.40   10.93   124.80  
  20   14:40    0.009     999.000     25.4    100     2.7     212    10.3   765.30   10.93   125.00  
  20   14:50    0.007     999.000     25.3    100     2.6     208     7.0   765.40   10.96   123.20  
  20   15:00    0.004     999.000     25.0    100     2.4     217     7.8   765.40   10.98   130.70  
  20   15:10    0.002     999.000     24.6    100     3.0     212     9.5   765.50   11.01   115.40  
  20   15:20    0.008     999.000     24.5    100     2.1     208     5.4   765.50   11.01   119.50  
  20   15:30    0.013     999.000     25.0    103     2.3     217     5.4   765.50   11.04   116.80  
  20   15:40    0.013     999.000     25.6    107     3.0     221    10.2   765.50   11.05   115.10  
  20   15:50    0.009     999.000     25.3     99     4.0     228    11.8   765.50   11.04   115.00  
  20   16:00    0.003     999.000     24.6    100     3.6     224     8.9   765.50   11.05   115.00  
  20   16:10    0.003     999.000     24.2    100     4.1     204     9.1   765.60   11.05   115.10  
  20   16:20    0.020     999.000     24.1    100     3.2     222     9.4   765.50   11.04   115.00  
  20   16:30    0.029     999.000     24.4    100     3.3     202     9.5   765.50   11.04   114.80  
  20   16:40    0.006     999.000     24.1    100     4.6     215    11.4   765.50   11.05   115.00  
  20   16:50    0.003     999.000     23.8    100     3.3     222     9.7   765.60   11.05   127.00  
  20   17:00    0.002     999.000     23.7    100     3.5     217    14.8   765.70   11.07   119.60  
  20   17:10    0.001     999.000     23.6    100     3.3     208    10.7   765.80   11.07   115.10  
  20   17:20    0.000     999.000     23.2    100     2.7     222     8.9   765.80   11.07   115.10  
  20   17:30    0.000     999.000     23.1    100     2.7     218     9.3   765.90   11.08   115.20  
  20   17:40    0.000     999.000     23.0    100     3.1     229     9.3   766.00   11.08   115.20  
  20   17:50    0.000     999.000     22.9    100     1.7     224     6.8   766.20   11.09   115.10  
  20   18:00    0.000     999.000     22.7    100     2.1     196     7.1   766.40   11.09   121.70  
  20   18:10    0.000     999.000     22.6    100     2.8     215     7.0   766.50   11.09   115.00  
  20   18:20    0.000     999.000     22.5    100     2.8     217     8.9   766.60   11.09   115.00  
  20   18:30    0.000     999.000     22.4    100     2.4     212     6.9   766.70   11.09   115.00  
  20   18:40    0.000     999.000     22.4    100     1.8     212     4.3   766.80   11.10   114.90  
  20   18:50    0.000     999.000     22.4    100     1.8     206     8.2   766.90   11.10   114.90  
  20   19:00    0.000     999.000     22.2     99     2.1     217     4.6   766.90   11.10   114.80  
  20   19:10    0.000     999.000     21.7     96     2.7     209     6.1   767.00   11.10   114.70  
  20   19:20    0.000     999.000     21.3     99     1.6     195     4.7   767.00   11.10   114.50  
  20   19:30    0.000     999.000     21.3    100     1.9     203     7.6   767.10   11.10   114.20  
  20   19:40    0.000     999.000     21.4    100     2.4     212     6.3   767.20   11.09   139.90  
  20   19:50    0.000     999.000     21.5    100     2.1     219     7.1   767.20   11.09   156.60  
  20   20:00    0.000     999.000     21.6    100     2.2     214     8.4   767.30   11.10   174.30  
  20   20:10    0.000     999.000     21.7    100     1.9     211     4.5   767.40   11.11   175.90  
  20   20:20    0.000     999.000     21.9    100     2.2     203     6.3   767.40   11.12   133.30  
  20   20:30    0.000     999.000     22.0    100     1.8     202     5.0   767.60   11.15   119.30  
  20   20:40    0.000     999.000     22.1    100     2.0     213     5.7   767.70   11.16   126.00  
  20   20:50    0.000     999.000     22.2    100     2.7     206    11.3   767.80   11.16   114.90  
  20   21:00    0.000     999.000     22.2    100     2.6     204     5.9   767.90   11.17   115.10  
  20   21:10    0.000     999.000     22.2    100     2.4     224     5.2   768.00   11.17   115.40  
  20   21:20    0.000     999.000     22.3    100     2.0     210     4.8   768.00   11.18   121.20  
  20   21:30    0.000     999.000     22.3    100     1.8     204     3.3   768.00   11.19   114.80  
  20   21:40    0.000     999.000     22.4    100     2.1     211     5.7   768.00   11.20   115.30  
  20   21:50    0.000     999.000     22.4    100     1.4     217     3.3   768.10   11.19   161.10  
  20   22:00    0.000     999.000     22.4    100     2.0     213     7.6   768.10   11.21   170.20  
  20   22:10    0.000     999.000     22.4    100     2.0     217     4.7   768.20   11.24   125.70  
  20   22:20    0.000     999.000     22.4    100     2.2     209     4.9   768.30   11.24   160.60  
  20   22:30    0.000     999.000     22.4    100     2.0     222     8.4   768.40   11.27   169.20  
  20   22:40    0.000     999.000     22.4    100     1.9     205     4.6   768.50   11.30   158.80  
  20   22:50    0.000     999.000     22.5    100     2.0     221     5.8   768.60   11.35   121.60  

Return to Central Sierra Snow Lab graphs page.


Western Regional Climate Center,wrcc@dri.edu